DW5212 Weather Reports


Display with metric or nautical units.
time (UTC)temp
F
wind
direction
speed
MPH
gust
MPH
rain 1hr
in
rain 24hr
in
rain mn
in
humidity
%
barometer
mb
20210801032905 81 205 0.0 0.0 0.00 0.00 0.00 86 1015.1
20210801032205 81 206 0.0 0.0 0.00 0.00 0.00 86 1015.1
20210801031504 81 205 0.0 0.0 0.00 0.00 0.00 86 1015.0
20210801030806 81 206 0.0 0.0 0.00 0.00 0.00 86 1014.9
20210801030104 81 205 0.0 0.0 0.00 0.00 0.00 86 1015.1
20210801025404 81 205 0.0 0.0 0.00 0.00 0.00 86 1015.2
20210801024704 81 205 0.0 0.0 0.00 0.00 0.00 86 1015.1
20210801024007 82 205 0.0 0.0 0.00 0.00 0.00 86 1014.9
20210801023306 82 205 0.0 0.0 0.00 0.00 0.00 86 1014.7
20210801022604 82 205 0.0 0.0 0.00 0.00 0.00 86 1014.8
20210801021906 82 206 0.0 0.0 0.00 0.00 0.00 86 1014.6
20210801021207 82 205 0.0 0.0 0.00 0.00 0.00 87 1015.1
20210801020506 82 205 0.0 0.0 0.00 0.00 0.00 87 1015.3
20210801015808 82 205 0.0 0.0 0.00 0.00 0.00 87 1015.3
20210801015105 82 205 0.0 0.0 0.00 0.00 0.00 88 1015.5
20210801014408 83 205 0.0 0.0 0.00 0.00 0.00 88 1015.4
20210801013705 83 205 0.0 0.0 0.00 0.00 0.00 89 1015.6
20210801013005 82 205 0.0 0.0 0.00 0.00 0.00 89 1015.6
20210801012305 82 206 0.0 0.0 0.00 0.00 0.00 89 1015.6
20210801011606 82 205 0.0 0.0 0.00 0.00 0.00 89 1015.5
20210801010906 83 205 0.0 0.0 0.00 0.00 0.00 88 1015.5
20210801010204 83 205 0.0 0.0 0.00 0.00 0.00 85 1015.4
20210801005505 83 205 0.0 0.0 0.00 0.00 0.00 86 1015.4
20210801004807 83 205 0.0 0.0 0.00 0.00 0.00 86 1015.2
20210801004104 84 205 0.0 0.0 0.00 0.00 0.00 85 1015.2
20210801003406 84 205 0.0 0.0 0.00 0.00 0.00 84 1015.1
20210801002704 84 205 0.0 0.0 0.00 0.00 0.00 81 1015.3
20210801002005 85 205 0.0 0.0 0.00 0.00 0.00 80 1015.2
20210801001303 86 205 0.0 0.0 0.00 0.00 0.00 79 1015.0
20210801000603 86 205 0.0 0.0 0.00 0.00 0.00 78 1015.0
20210731235903 86 205 0.0 0.0 0.00 0.00 0.00 78 1015.1
20210731235204 87 218 0.0 0.0 0.00 0.00 0.00 79 1015.1
20210731234503 86 218 0.0 0.0 0.00 0.00 0.00 82 1014.9
20210731233804 86 218 0.0 0.0 0.00 0.00 0.00 81 1014.9
20210731233103 87 218 0.0 0.0 0.00 0.00 0.00 78 1014.7
20210731232417 87 218 0.0 0.0 0.00 0.00 0.00 78 1014.9
20210731231704 87 218 0.0 0.0 0.00 0.00 0.00 79 1014.9
20210731231003 88 211 0.0 0.0 0.00 0.00 0.00 74 1015.0
20210731230303 88 212 0.0 0.0 0.00 0.00 0.00 78 1015.0
20210731225620 88 211 0.0 0.0 0.00 0.00 0.00 77 1015.0
20210731224906 89 211 0.0 0.0 0.00 0.00 0.00 72 1014.9
20210731224205 89 211 0.0 0.0 0.00 0.00 0.00 72 1015.0
20210731223503 89 211 0.0 0.0 0.00 0.00 0.00 74 1015.0
20210731222819 90 210 0.0 0.0 0.00 0.00 0.00 71 1015.2
20210731222109 89 211 0.0 0.0 0.00 0.00 0.00 71 1015.2
20210731221403 89 211 0.0 0.0 0.00 0.00 0.00 72 1015.1
20210731220704 89 211 0.0 0.0 0.00 0.00 0.00 70 1015.2
20210731220009 90 211 0.0 0.0 0.00 0.00 0.00 70 1014.9
20210731215305 90 211 0.0 0.0 0.00 0.00 0.00 69 1015.0
20210731214603 92 178 0.0 0.0 0.00 0.00 0.00 64 1015.0
20210731213903 92 171 0.0 0.0 0.00 0.00 0.00 66 1015.2
20210731213206 91 26 0.0 0.0 0.00 0.00 0.00 66 1015.2
20210731212503 91 173 0.0 0.0 0.00 0.00 0.00 65 1015.3
20210731211805 93 202 0.0 0.0 0.00 0.00 0.00 62 1015.3
20210731211103 93 54 0.0 0.0 0.00 0.00 0.00 64 1015.4
20210731210404 91 96 0.0 0.0 0.00 0.00 0.00 67 1015.4
20210731205705 91 308 0.0 0.0 0.00 0.00 0.00 65 1015.6
20210731205004 92 337 0.0 0.0 0.00 0.00 0.00 66 1015.7
20210731204303 94 202 0.0 0.0 0.00 0.00 0.00 61 1016.1
20210731203603 92 210 0.0 0.0 0.00 0.00 0.00 66 1016.1
20210731202903 92 221 0.0 0.0 0.00 0.00 0.00 65 1016.2
20210731202203 92 234 0.0 0.0 0.00 0.00 0.00 66 1016.4
20210731201504 94 156 0.0 0.0 0.00 0.00 0.00 62 1016.5
20210731200805 92 178 0.0 0.0 0.00 0.00 0.00 66 1016.5
20210731200103 91 355 0.0 0.0 0.00 0.00 0.00 70 1016.6
20210731195403 92 355 0.0 0.0 0.00 0.00 0.00 65 1016.7
20210731194703 92 217 0.0 0.0 0.00 0.00 0.00 69 1016.9
20210731194005 90 113 0.0 0.0 0.00 0.00 0.00 70 1016.9
20210731193739 91 44 0.0 0.0 0.00 0.00 0.00 71 1016.9
20210731192603 90 38 0.0 0.0 0.00 0.00 0.00 74 1017.0
20210731191908 88 22 0.0 0.0 0.00 0.00 0.00 77 1017.0
20210731191205 88 57 0.0 0.0 0.00 0.00 0.00 75 1017.1
20210731190505 88 57 0.0 0.0 0.00 0.00 0.00 75 1017.2
20210731185804 89 57 0.0 0.0 0.00 0.00 0.00 73 1017.2
20210731185103 90 206 0.0 0.0 0.00 0.00 0.00 71 1017.3
20210731184405 91 50 0.0 0.0 0.00 0.00 0.00 67 1017.4
20210731183703 92 215 0.0 0.0 0.00 0.00 0.00 63 1017.3
20210731183010 92 132 0.0 0.0 0.00 0.00 0.00 69 1017.3
20210731182305 92 208 0.0 0.0 0.00 0.00 0.00 71 1017.4
20210731181603 89 191 0.0 0.0 0.00 0.00 0.00 74 1017.4
20210731180903 91 193 0.0 0.0 0.00 0.00 0.00 69 1017.5
20210731180209 92 192 0.0 0.0 0.00 0.00 0.00 62 1017.5
20210731175503 93 213 0.0 0.0 0.00 0.00 0.00 66 1017.6
20210731174807 92 181 0.0 0.0 0.00 0.00 0.00 72 1017.5
20210731174106 89 40 0.0 0.0 0.00 0.00 0.00 76 1017.6
20210731173403 90 71 0.0 0.0 0.00 0.00 0.00 72 1017.6
20210731172705 92 205 0.0 0.0 0.00 0.00 0.00 70 1017.5
20210731172005 92 168 0.0 0.0 0.00 0.00 0.00 63 1017.6
20210731171303 93 196 0.0 0.0 0.00 0.00 0.00 69 1017.5
20210731170608 91 205 0.0 0.0 0.00 0.00 0.00 70 1017.5
20210731165903 90 308 0.0 0.0 0.00 0.00 0.00 72 1017.5
20210731165207 91 238 0.0 0.0 0.00 0.00 0.00 75 1017.6
20210731164503 90 344 0.0 0.0 0.00 0.00 0.00 74 1017.6
20210731163804 91 204 0.0 0.0 0.00 0.00 0.00 73 1017.8
20210731163102 91 239 0.0 0.0 0.00 0.00 0.00 76 1017.7
20210731162405 88 66 0.0 0.0 0.00 0.00 0.00 79 1017.8
20210731161704 89 207 0.0 0.0 0.00 0.00 0.00 77 1017.8
20210731161004 90 226 0.0 0.0 0.00 0.00 0.00 73 1017.9
20210731160305 90 222 0.0 0.0 0.00 0.00 0.00 77 1017.9
20210731155605 88 278 0.0 0.0 0.00 0.00 0.00 80 1018.1
20210731154903 88 271 0.0 0.0 0.00 0.00 0.00 81 1018.0
20210731154202 87 183 0.0 0.0 0.00 0.00 0.00 79 1018.1
20210731153504 87 80 0.0 0.0 0.00 0.00 0.00 80 1018.1
20210731152805 86 277 0.0 0.0 0.00 0.00 0.00 80 1018.0
20210731152102 86 267 0.0 0.0 0.00 0.00 0.00 83 1018.0
20210731151403 85 127 0.0 0.0 0.00 0.00 0.00 83 1018.0
20210731150703 85 142 0.0 0.0 0.00 0.00 0.00 84 1018.0
20210731150008 85 163 0.0 0.0 0.00 0.00 0.00 84 1018.0
20210731145305 84 212 0.0 0.0 0.00 0.00 0.00 85 1018.1
20210731144609 84 134 0.0 0.0 0.00 0.00 0.00 86 1018.1
20210731143904 83 355 0.0 0.0 0.00 0.00 0.00 87 1018.1
20210731143206 83 200 0.0 0.0 0.00 0.00 0.00 88 1018.1
20210731142503 83 226 0.0 0.0 0.00 0.00 0.00 89 1018.0
20210731141805 82 219 0.0 0.0 0.00 0.00 0.00 90 1018.2
20210731141103 82 219 0.0 0.0 0.00 0.00 0.00 90 1018.2
20210731140405 82 107 0.0 0.0 0.00 0.00 0.00 91 1018.3
20210731135703 81 79 0.0 0.0 0.00 0.00 0.00 92 1018.2
20210731135005 81 221 0.0 0.0 0.00 0.00 0.00 92 1018.1
20210731134303 81 209 0.0 0.0 0.00 0.00 0.00 93 1018.1
20210731133603 80 222 0.0 0.0 0.00 0.00 0.00 94 1018.1
20210731132903 80 236 0.0 0.0 0.00 0.00 0.00 94 1017.9
20210731132203 80 212 0.0 0.0 0.00 0.00 0.00 95 1017.9
20210731131505 79 211 0.0 0.0 0.00 0.00 0.00 95 1017.8
20210731130803 79 178 0.0 0.0 0.00 0.00 0.00 96 1017.8
20210731130103 78 220 0.0 0.0 0.00 0.00 0.00 96 1017.8
20210731125402 77 221 0.0 0.0 0.00 0.00 0.00 96 1017.7
20210731124704 77 221 0.0 0.0 0.00 0.00 0.00 96 1017.7
20210731124004 77 221 0.0 0.0 0.00 0.00 0.00 96 1017.7
20210731123304 76 173 0.0 0.0 0.00 0.00 0.00 96 1017.7
20210731122604 76 173 0.0 0.0 0.00 0.00 0.00 96 1017.8
20210731121903 75 173 0.0 0.0 0.00 0.00 0.00 96 1017.7
20210731121206 75 173 0.0 0.0 0.00 0.00 0.00 96 1017.8
20210731120502 75 173 0.0 0.0 0.00 0.00 0.00 96 1017.8
20210731115802 75 172 0.0 0.0 0.00 0.00 0.00 96 1017.7
20210731115102 75 173 0.0 0.0 0.00 0.00 0.00 95 1017.7
20210731114403 75 173 0.0 0.0 0.00 0.00 0.00 95 1017.7
20210731113703 75 173 0.0 0.0 0.00 0.00 0.00 95 1017.7
20210731113004 76 173 0.0 0.0 0.00 0.00 0.00 94 1017.7
20210731112306 76 173 0.0 0.0 0.00 0.00 0.00 94 1017.8
20210731111604 76 173 0.0 0.0 0.00 0.00 0.00 94 1017.7
20210731110901 76 173 0.0 0.0 0.00 0.00 0.00 94 1017.6
20210731110202 76 173 0.0 0.0 0.00 0.00 0.00 94 1017.6
20210731105502 76 173 0.0 0.0 0.00 0.00 0.00 94 1017.4
20210731104803 76 173 0.0 0.0 0.00 0.00 0.00 94 1017.4
20210731104104 76 173 0.0 0.0 0.00 0.00 0.00 93 1017.3
20210731103403 76 173 0.0 0.0 0.00 0.00 0.00 93 1017.5
20210731102703 76 173 0.0 0.0 0.00 0.00 0.00 93 1017.3
20210731102005 76 173 0.0 0.0 0.00 0.00 0.00 93 1017.1
20210731101302 76 173 0.0 0.0 0.00 0.00 0.00 93 1017.1
20210731100602 76 173 0.0 0.0 0.00 0.00 0.00 93 1017.1
20210731095903 76 173 0.0 0.0 0.00 0.00 0.00 93 1017.0
20210731095203 76 173 0.0 0.0 0.00 0.00 0.00 93 1016.9
20210731094503 76 173 0.0 0.0 0.00 0.00 0.00 93 1017.0
20210731093801 76 173 0.0 0.0 0.00 0.00 0.00 93 1016.8
20210731093106 76 173 0.0 0.0 0.00 0.00 0.00 93 1016.7
20210731092405 76 173 0.0 0.0 0.00 0.00 0.00 93 1016.6
20210731091703 76 173 0.0 0.0 0.00 0.00 0.00 93 1016.6
20210731091003 76 173 0.0 0.0 0.00 0.00 0.00 93 1016.6
20210731090302 76 173 0.0 0.0 0.00 0.00 0.00 93 1016.5
20210731085602 76 173 0.0 0.0 0.00 0.00 0.00 92 1016.4
20210731084903 77 171 0.0 0.0 0.00 0.00 0.00 92 1016.5
20210731084202 77 173 0.0 0.0 0.00 0.00 0.00 92 1016.5
20210731083502 77 173 0.0 0.0 0.00 0.00 0.00 92 1016.5
20210731082803 77 173 0.0 0.0 0.00 0.00 0.00 93 1016.4
20210731082102 77 173 0.0 0.0 0.00 0.00 0.00 92 1016.2
20210731081402 77 172 0.0 0.0 0.00 0.00 0.00 92 1016.3
20210731080702 77 173 0.0 0.0 0.00 0.00 0.00 92 1016.4
20210731080007 77 172 0.0 0.0 0.00 0.00 0.00 92 1016.4
20210731075305 77 173 0.0 0.0 0.00 0.00 0.00 92 1016.5
20210731074603 77 173 0.0 0.0 0.00 0.00 0.00 92 1016.5
20210731073908 77 173 0.0 0.0 0.00 0.00 0.00 92 1016.3
20210731073207 77 173 0.0 0.0 0.00 0.00 0.00 92 1016.4
20210731072504 77 173 0.0 0.0 0.00 0.00 0.00 92 1016.4
20210731071804 77 173 0.0 0.0 0.00 0.00 0.00 92 1016.3
20210731071105 78 173 0.0 0.0 0.00 0.00 0.00 92 1016.3
20210731070407 78 173 0.0 0.0 0.00 0.00 0.00 92 1016.4
20210731065705 78 173 0.0 0.0 0.00 0.00 0.00 91 1016.4
20210731065006 78 173 0.0 0.0 0.00 0.00 0.00 91 1016.4
20210731064305 78 173 0.0 0.0 0.00 0.00 0.00 91 1016.5
20210731063605 78 173 0.0 0.0 0.00 0.00 0.00 91 1016.4
20210731062904 78 173 0.0 0.0 0.00 0.00 0.00 91 1016.6
20210731062203 78 173 0.0 0.0 0.00 0.00 0.00 91 1016.7
20210731061504 78 173 0.0 0.0 0.00 0.00 0.00 91 1016.6
20210731060806 78 173 0.0 0.0 0.00 0.00 0.00 91 1016.7
20210731060103 78 173 0.0 0.0 0.00 0.00 0.00 91 1016.7
20210731055405 78 173 0.0 0.0 0.00 0.00 0.00 91 1016.8
20210731054705 79 173 0.0 0.0 0.00 0.00 0.00 91 1016.9
20210731054006 79 173 0.0 0.0 0.00 0.00 0.00 90 1016.8
20210731053304 79 173 0.0 0.0 0.00 0.00 0.00 90 1016.9
20210731052606 79 173 0.0 0.0 0.00 0.00 0.00 90 1016.9
20210731051905 79 173 0.0 0.0 0.00 0.00 0.00 90 1017.0
20210731051207 79 172 0.0 0.0 0.00 0.00 0.00 90 1017.0
20210731050504 79 173 0.0 0.0 0.00 0.00 0.00 89 1017.0
20210731045803 79 172 0.0 0.0 0.00 0.00 0.00 89 1017.0
20210731045105 79 172 0.0 0.0 0.00 0.00 0.00 89 1016.9
20210731044406 79 173 0.0 0.0 0.00 0.00 0.00 89 1016.9
20210731043704 79 173 0.0 0.0 0.00 0.00 0.00 89 1016.9
20210731043004 80 173 0.0 0.0 0.00 0.00 0.00 89 1016.9
20210731042306 80 173 0.0 0.0 0.00 0.00 0.00 89 1016.9
20210731041606 80 173 0.0 0.0 0.00 0.00 0.00 89 1017.1
20210731040908 80 172 0.0 0.0 0.00 0.00 0.00 89 1017.0
20210731040204 80 173 0.0 0.0 0.00 0.00 0.00 89 1017.0
20210731035504 80 173 0.0 0.0 0.00 0.00 0.00 89 1016.9
20210731034804 81 173 0.0 0.0 0.00 0.00 0.00 89 1016.9
20210731034104 81 173 0.0 0.0 0.00 0.00 0.00 89 1017.0